sensor_id;sensor_type;location;lat;lon;timestamp;temperature;humidity
18207;DHT22;9229;52.354;20.886;2023-07-24T00:02:00;19.80;99.90
18207;DHT22;9229;52.354;20.886;2023-07-24T00:07:02;19.70;99.90
18207;DHT22;9229;52.354;20.886;2023-07-24T00:12:06;19.80;99.90
18207;DHT22;9229;52.354;20.886;2023-07-24T00:17:08;19.80;99.90
18207;DHT22;9229;52.354;20.886;2023-07-24T00:22:10;19.80;99.90
18207;DHT22;9229;52.354;20.886;2023-07-24T00:27:14;19.80;99.90
18207;DHT22;9229;52.354;20.886;2023-07-24T00:32:16;19.80;99.90
18207;DHT22;9229;52.354;20.886;2023-07-24T00:37:18;19.70;99.90
18207;DHT22;9229;52.354;20.886;2023-07-24T00:42:22;19.70;99.90
18207;DHT22;9229;52.354;20.886;2023-07-24T00:47:25;19.70;99.90
18207;DHT22;9229;52.354;20.886;2023-07-24T00:52:31;19.70;99.90
18207;DHT22;9229;52.354;20.886;2023-07-24T00:57:34;19.70;99.90
18207;DHT22;9229;52.354;20.886;2023-07-24T01:02:37;19.70;99.90
18207;DHT22;9229;52.354;20.886;2023-07-24T01:07:40;19.80;99.90
18207;DHT22;9229;52.354;20.886;2023-07-24T01:12:49;19.80;99.90
18207;DHT22;9229;52.354;20.886;2023-07-24T01:17:56;19.90;99.90
18207;DHT22;9229;52.354;20.886;2023-07-24T01:23:14;20.00;99.90
18207;DHT22;9229;52.354;20.886;2023-07-24T01:28:21;20.10;99.90
18207;DHT22;9229;52.354;20.886;2023-07-24T01:33:23;20.20;99.90
18207;DHT22;9229;52.354;20.886;2023-07-24T01:38:27;20.20;99.90
18207;DHT22;9229;52.354;20.886;2023-07-24T01:43:30;20.30;99.90
18207;DHT22;9229;52.354;20.886;2023-07-24T01:48:33;20.30;99.90
18207;DHT22;9229;52.354;20.886;2023-07-24T01:53:35;20.40;99.90
18207;DHT22;9229;52.354;20.886;2023-07-24T01:58:38;20.30;99.90
18207;DHT22;9229;52.354;20.886;2023-07-24T02:03:40;20.30;99.90
18207;DHT22;9229;52.354;20.886;2023-07-24T02:08:42;20.30;99.90
18207;DHT22;9229;52.354;20.886;2023-07-24T02:13:50;20.30;99.90
18207;DHT22;9229;52.354;20.886;2023-07-24T02:18:52;20.20;99.90
18207;DHT22;9229;52.354;20.886;2023-07-24T02:23:54;20.20;99.90
18207;DHT22;9229;52.354;20.886;2023-07-24T02:28:58;20.10;99.90
18207;DHT22;9229;52.354;20.886;2023-07-24T02:34:00;20.00;99.90
18207;DHT22;9229;52.354;20.886;2023-07-24T02:39:02;20.00;99.90
18207;DHT22;9229;52.354;20.886;2023-07-24T02:44:05;19.90;99.90
18207;DHT22;9229;52.354;20.886;2023-07-24T02:49:08;20.00;99.90
18207;DHT22;9229;52.354;20.886;2023-07-24T02:54:10;20.00;99.90
18207;DHT22;9229;52.354;20.886;2023-07-24T02:59:14;20.00;99.90
18207;DHT22;9229;52.354;20.886;2023-07-24T03:04:17;20.10;99.80
18207;DHT22;9229;52.354;20.886;2023-07-24T03:09:19;20.10;99.30
18207;DHT22;9229;52.354;20.886;2023-07-24T03:14:22;20.30;98.80
18207;DHT22;9229;52.354;20.886;2023-07-24T03:19:24;20.40;98.40
18207;DHT22;9229;52.354;20.886;2023-07-24T03:24:26;20.50;98.00
18207;DHT22;9229;52.354;20.886;2023-07-24T03:29:32;20.50;97.90
18207;DHT22;9229;52.354;20.886;2023-07-24T03:34:34;20.50;97.80
18207;DHT22;9229;52.354;20.886;2023-07-24T03:39:36;20.40;97.80
18207;DHT22;9229;52.354;20.886;2023-07-24T03:44:40;20.50;97.90
18207;DHT22;9229;52.354;20.886;2023-07-24T03:49:42;20.60;97.90
18207;DHT22;9229;52.354;20.886;2023-07-24T03:54:44;20.60;97.70
18207;DHT22;9229;52.354;20.886;2023-07-24T03:59:47;20.60;97.50
18207;DHT22;9229;52.354;20.886;2023-07-24T04:04:49;20.60;97.40
18207;DHT22;9229;52.354;20.886;2023-07-24T04:09:51;20.70;97.70
18207;DHT22;9229;52.354;20.886;2023-07-24T04:14:55;20.70;97.50
18207;DHT22;9229;52.354;20.886;2023-07-24T04:19:56;20.50;97.60
18207;DHT22;9229;52.354;20.886;2023-07-24T04:24:58;20.80;97.90
18207;DHT22;9229;52.354;20.886;2023-07-24T04:30:02;20.90;97.80
18207;DHT22;9229;52.354;20.886;2023-07-24T04:35:04;21.10;97.60
18207;DHT22;9229;52.354;20.886;2023-07-24T04:40:07;21.20;97.30
18207;DHT22;9229;52.354;20.886;2023-07-24T04:45:12;21.30;97.30
18207;DHT22;9229;52.354;20.886;2023-07-24T04:50:14;21.30;97.10
18207;DHT22;9229;52.354;20.886;2023-07-24T04:55:16;21.40;97.10
18207;DHT22;9229;52.354;20.886;2023-07-24T05:00:19;21.50;96.80
18207;DHT22;9229;52.354;20.886;2023-07-24T05:05:21;21.70;96.60
18207;DHT22;9229;52.354;20.886;2023-07-24T05:10:23;21.90;96.30
18207;DHT22;9229;52.354;20.886;2023-07-24T05:15:27;22.20;95.90
18207;DHT22;9229;52.354;20.886;2023-07-24T05:20:29;22.30;95.40
18207;DHT22;9229;52.354;20.886;2023-07-24T05:25:32;22.20;95.20
18207;DHT22;9229;52.354;20.886;2023-07-24T05:30:35;22.30;95.60
18207;DHT22;9229;52.354;20.886;2023-07-24T05:35:37;22.20;95.70
18207;DHT22;9229;52.354;20.886;2023-07-24T05:40:39;22.10;95.90
18207;DHT22;9229;52.354;20.886;2023-07-24T05:45:43;22.10;95.80
18207;DHT22;9229;52.354;20.886;2023-07-24T05:50:45;22.20;95.70
18207;DHT22;9229;52.354;20.886;2023-07-24T05:55:47;22.30;95.60
18207;DHT22;9229;52.354;20.886;2023-07-24T06:00:50;22.20;95.60
18207;DHT22;9229;52.354;20.886;2023-07-24T06:05:52;22.20;95.60
18207;DHT22;9229;52.354;20.886;2023-07-24T06:10:54;22.10;96.80
18207;DHT22;9229;52.354;20.886;2023-07-24T06:15:57;21.90;97.40
18207;DHT22;9229;52.354;20.886;2023-07-24T06:21:00;22.10;97.30
18207;DHT22;9229;52.354;20.886;2023-07-24T06:26:01;22.10;97.00
18207;DHT22;9229;52.354;20.886;2023-07-24T06:31:05;22.10;97.30
18207;DHT22;9229;52.354;20.886;2023-07-24T06:36:09;22.10;97.80
18207;DHT22;9229;52.354;20.886;2023-07-24T06:41:11;22.40;98.00
18207;DHT22;9229;52.354;20.886;2023-07-24T06:46:15;22.70;97.10
18207;DHT22;9229;52.354;20.886;2023-07-24T06:51:17;22.80;96.40
18207;DHT22;9229;52.354;20.886;2023-07-24T06:56:19;22.90;96.30
18207;DHT22;9229;52.354;20.886;2023-07-24T07:01:22;23.20;95.90
18207;DHT22;9229;52.354;20.886;2023-07-24T07:06:24;23.80;95.30
18207;DHT22;9229;52.354;20.886;2023-07-24T07:11:26;24.80;94.40
18207;DHT22;9229;52.354;20.886;2023-07-24T07:16:29;25.50;92.50
18207;DHT22;9229;52.354;20.886;2023-07-24T07:21:31;25.50;91.10
18207;DHT22;9229;52.354;20.886;2023-07-24T07:26:33;25.50;91.10
18207;DHT22;9229;52.354;20.886;2023-07-24T07:31:36;25.60;90.50
18207;DHT22;9229;52.354;20.886;2023-07-24T07:36:38;25.90;89.60
18207;DHT22;9229;52.354;20.886;2023-07-24T07:41:40;25.70;90.00
18207;DHT22;9229;52.354;20.886;2023-07-24T07:46:43;25.60;90.50
18207;DHT22;9229;52.354;20.886;2023-07-24T07:51:45;25.30;89.40
18207;DHT22;9229;52.354;20.886;2023-07-24T07:56:47;24.90;90.10
18207;DHT22;9229;52.354;20.886;2023-07-24T08:01:50;24.70;90.40
18207;DHT22;9229;52.354;20.886;2023-07-24T08:06:53;24.70;90.60
18207;DHT22;9229;52.354;20.886;2023-07-24T08:11:55;24.70;90.40
18207;DHT22;9229;52.354;20.886;2023-07-24T08:16:58;24.60;90.90
18207;DHT22;9229;52.354;20.886;2023-07-24T08:22:00;24.50;90.70
18207;DHT22;9229;52.354;20.886;2023-07-24T08:27:02;24.70;90.60
18207;DHT22;9229;52.354;20.886;2023-07-24T08:32:07;25.10;90.10
18207;DHT22;9229;52.354;20.886;2023-07-24T08:37:09;25.90;89.50
18207;DHT22;9229;52.354;20.886;2023-07-24T08:42:13;26.70;85.60
18207;DHT22;9229;52.354;20.886;2023-07-24T08:47:16;27.40;83.30
18207;DHT22;9229;52.354;20.886;2023-07-24T08:52:19;28.20;81.40
18207;DHT22;9229;52.354;20.886;2023-07-24T08:57:21;28.20;79.00
18207;DHT22;9229;52.354;20.886;2023-07-24T09:02:24;28.00;78.30
18207;DHT22;9229;52.354;20.886;2023-07-24T09:07:26;28.00;78.90
18207;DHT22;9229;52.354;20.886;2023-07-24T09:12:28;28.30;77.70
18207;DHT22;9229;52.354;20.886;2023-07-24T09:17:31;28.60;76.20
18207;DHT22;9229;52.354;20.886;2023-07-24T09:22:33;28.80;75.40
18207;DHT22;9229;52.354;20.886;2023-07-24T09:27:35;29.40;72.80
18207;DHT22;9229;52.354;20.886;2023-07-24T09:32:38;29.70;72.70
18207;DHT22;9229;52.354;20.886;2023-07-24T09:37:40;30.60;69.40
18207;DHT22;9229;52.354;20.886;2023-07-24T09:42:42;31.60;66.90
18207;DHT22;9229;52.354;20.886;2023-07-24T09:47:46;31.70;63.60
18207;DHT22;9229;52.354;20.886;2023-07-24T09:52:49;31.70;63.40
18207;DHT22;9229;52.354;20.886;2023-07-24T09:57:53;31.50;63.50
18207;DHT22;9229;52.354;20.886;2023-07-24T10:02:56;31.90;62.30
18207;DHT22;9229;52.354;20.886;2023-07-24T10:07:58;32.90;59.70
18207;DHT22;9229;52.354;20.886;2023-07-24T10:13:01;33.90;57.60
18207;DHT22;9229;52.354;20.886;2023-07-24T10:18:07;34.10;56.80
18207;DHT22;9229;52.354;20.886;2023-07-24T10:23:10;35.50;54.40
18207;DHT22;9229;52.354;20.886;2023-07-24T10:28:12;34.80;53.40
18207;DHT22;9229;52.354;20.886;2023-07-24T10:33:20;34.10;54.10
18207;DHT22;9229;52.354;20.886;2023-07-24T10:38:33;33.50;54.70
18207;DHT22;9229;52.354;20.886;2023-07-24T10:43:43;33.50;55.00
18207;DHT22;9229;52.354;20.886;2023-07-24T10:48:49;32.60;56.10
18207;DHT22;9229;52.354;20.886;2023-07-24T10:53:51;32.10;57.30
18207;DHT22;9229;52.354;20.886;2023-07-24T10:58:53;31.60;57.60
18207;DHT22;9229;52.354;20.886;2023-07-24T11:03:57;31.30;57.70
18207;DHT22;9229;52.354;20.886;2023-07-24T11:09:00;32.70;55.70
18207;DHT22;9229;52.354;20.886;2023-07-24T11:14:03;34.70;53.80
18207;DHT22;9229;52.354;20.886;2023-07-24T11:19:06;35.70;51.00
18207;DHT22;9229;52.354;20.886;2023-07-24T11:24:08;35.70;51.10
18207;DHT22;9229;52.354;20.886;2023-07-24T11:29:12;34.50;51.80
18207;DHT22;9229;52.354;20.886;2023-07-24T11:34:16;34.30;53.00
18207;DHT22;9229;52.354;20.886;2023-07-24T11:39:22;35.20;52.20
18207;DHT22;9229;52.354;20.886;2023-07-24T11:44:25;35.10;51.50
18207;DHT22;9229;52.354;20.886;2023-07-24T11:49:29;34.50;51.70
18207;DHT22;9229;52.354;20.886;2023-07-24T11:54:34;34.50;50.70
18207;DHT22;9229;52.354;20.886;2023-07-24T11:59:37;35.50;50.20
18207;DHT22;9229;52.354;20.886;2023-07-24T12:04:41;35.70;49.20
18207;DHT22;9229;52.354;20.886;2023-07-24T12:09:50;36.10;47.90
18207;DHT22;9229;52.354;20.886;2023-07-24T12:14:52;36.00;46.50
18207;DHT22;9229;52.354;20.886;2023-07-24T12:19:56;35.40;48.10
18207;DHT22;9229;52.354;20.886;2023-07-24T12:24:58;35.20;47.60
18207;DHT22;9229;52.354;20.886;2023-07-24T12:30:00;35.30;47.50
18207;DHT22;9229;52.354;20.886;2023-07-24T12:35:04;35.40;48.20
18207;DHT22;9229;52.354;20.886;2023-07-24T12:40:07;34.50;48.70
18207;DHT22;9229;52.354;20.886;2023-07-24T12:45:09;34.20;49.50
18207;DHT22;9229;52.354;20.886;2023-07-24T12:50:12;34.30;48.80
18207;DHT22;9229;52.354;20.886;2023-07-24T12:55:14;33.70;49.70
18207;DHT22;9229;52.354;20.886;2023-07-24T13:00:16;34.80;48.00
18207;DHT22;9229;52.354;20.886;2023-07-24T13:05:20;35.30;46.70
18207;DHT22;9229;52.354;20.886;2023-07-24T13:10:22;34.90;47.20
18207;DHT22;9229;52.354;20.886;2023-07-24T13:15:24;34.50;47.60
18207;DHT22;9229;52.354;20.886;2023-07-24T13:20:28;34.00;48.10
18207;DHT22;9229;52.354;20.886;2023-07-24T13:25:30;33.90;48.10
18207;DHT22;9229;52.354;20.886;2023-07-24T13:30:32;33.40;48.70
18207;DHT22;9229;52.354;20.886;2023-07-24T13:35:35;32.70;49.30
18207;DHT22;9229;52.354;20.886;2023-07-24T13:40:39;32.60;50.20
18207;DHT22;9229;52.354;20.886;2023-07-24T13:45:41;32.50;50.80
18207;DHT22;9229;52.354;20.886;2023-07-24T13:50:44;33.00;50.20
18207;DHT22;9229;52.354;20.886;2023-07-24T13:55:46;34.60;48.70
18207;DHT22;9229;52.354;20.886;2023-07-24T14:00:48;35.90;45.30
18207;DHT22;9229;52.354;20.886;2023-07-24T14:05:51;35.30;46.30
18207;DHT22;9229;52.354;20.886;2023-07-24T14:10:53;34.50;47.10
18207;DHT22;9229;52.354;20.886;2023-07-24T14:15:55;33.80;47.50
18207;DHT22;9229;52.354;20.886;2023-07-24T14:21:01;33.20;48.20
18207;DHT22;9229;52.354;20.886;2023-07-24T14:26:03;32.80;48.80
18207;DHT22;9229;52.354;20.886;2023-07-24T14:31:06;32.20;49.10
18207;DHT22;9229;52.354;20.886;2023-07-24T14:36:09;31.80;50.30
18207;DHT22;9229;52.354;20.886;2023-07-24T14:41:11;31.80;50.10
18207;DHT22;9229;52.354;20.886;2023-07-24T14:46:13;31.80;50.70
18207;DHT22;9229;52.354;20.886;2023-07-24T14:51:16;31.70;50.30
18207;DHT22;9229;52.354;20.886;2023-07-24T14:56:19;31.70;50.90
18207;DHT22;9229;52.354;20.886;2023-07-24T15:01:21;31.70;50.50
18207;DHT22;9229;52.354;20.886;2023-07-24T15:06:24;31.50;50.60
18207;DHT22;9229;52.354;20.886;2023-07-24T15:11:27;31.50;51.10
18207;DHT22;9229;52.354;20.886;2023-07-24T15:16:29;31.60;51.40
18207;DHT22;9229;52.354;20.886;2023-07-24T15:21:32;31.80;51.00
18207;DHT22;9229;52.354;20.886;2023-07-24T15:26:37;32.20;50.60
18207;DHT22;9229;52.354;20.886;2023-07-24T15:31:39;32.30;50.10
18207;DHT22;9229;52.354;20.886;2023-07-24T15:36:48;32.00;50.20
18207;DHT22;9229;52.354;20.886;2023-07-24T15:41:50;31.60;50.30
18207;DHT22;9229;52.354;20.886;2023-07-24T15:46:53;31.30;51.30
18207;DHT22;9229;52.354;20.886;2023-07-24T15:51:56;31.20;51.90
18207;DHT22;9229;52.354;20.886;2023-07-24T15:56:58;31.10;51.70
18207;DHT22;9229;52.354;20.886;2023-07-24T16:02:00;31.10;51.30
18207;DHT22;9229;52.354;20.886;2023-07-24T16:07:04;31.00;51.70
18207;DHT22;9229;52.354;20.886;2023-07-24T16:12:06;30.80;51.40
18207;DHT22;9229;52.354;20.886;2023-07-24T16:17:08;30.80;52.10
18207;DHT22;9229;52.354;20.886;2023-07-24T16:22:13;30.70;52.20
18207;DHT22;9229;52.354;20.886;2023-07-24T16:27:14;30.60;52.80
18207;DHT22;9229;52.354;20.886;2023-07-24T16:32:16;30.50;53.20
18207;DHT22;9229;52.354;20.886;2023-07-24T16:37:20;30.50;53.00
18207;DHT22;9229;52.354;20.886;2023-07-24T16:42:22;30.50;53.80
18207;DHT22;9229;52.354;20.886;2023-07-24T16:47:23;30.60;53.00
18207;DHT22;9229;52.354;20.886;2023-07-24T16:52:27;30.50;53.10
18207;DHT22;9229;52.354;20.886;2023-07-24T16:57:29;30.30;53.40
18207;DHT22;9229;52.354;20.886;2023-07-24T17:02:32;30.10;54.20
18207;DHT22;9229;52.354;20.886;2023-07-24T17:07:39;29.80;54.90
18207;DHT22;9229;52.354;20.886;2023-07-24T17:12:41;29.70;55.30
18207;DHT22;9229;52.354;20.886;2023-07-24T17:17:43;29.50;55.50
18207;DHT22;9229;52.354;20.886;2023-07-24T17:22:47;29.40;55.80
18207;DHT22;9229;52.354;20.886;2023-07-24T17:27:49;29.30;56.20
18207;DHT22;9229;52.354;20.886;2023-07-24T17:32:51;29.20;57.00
18207;DHT22;9229;52.354;20.886;2023-07-24T17:37:54;29.10;58.40
18207;DHT22;9229;52.354;20.886;2023-07-24T17:42:56;29.00;59.30
18207;DHT22;9229;52.354;20.886;2023-07-24T17:48:00;28.80;59.00
18207;DHT22;9229;52.354;20.886;2023-07-24T17:53:03;28.70;59.60
18207;DHT22;9229;52.354;20.886;2023-07-24T17:58:05;28.60;59.80
18207;DHT22;9229;52.354;20.886;2023-07-24T18:03:09;28.40;61.00
18207;DHT22;9229;52.354;20.886;2023-07-24T18:08:12;28.30;61.60
18207;DHT22;9229;52.354;20.886;2023-07-24T18:13:14;28.00;62.60
18207;DHT22;9229;52.354;20.886;2023-07-24T18:18:16;27.90;63.40
18207;DHT22;9229;52.354;20.886;2023-07-24T18:23:20;27.60;63.70
18207;DHT22;9229;52.354;20.886;2023-07-24T18:28:23;27.40;64.30
18207;DHT22;9229;52.354;20.886;2023-07-24T18:33:24;27.10;65.50
18207;DHT22;9229;52.354;20.886;2023-07-24T18:38:28;26.90;66.30
18207;DHT22;9229;52.354;20.886;2023-07-24T18:43:30;26.70;67.70
18207;DHT22;9229;52.354;20.886;2023-07-24T18:48:31;26.50;69.00
18207;DHT22;9229;52.354;20.886;2023-07-24T18:53:36;26.20;70.10
18207;DHT22;9229;52.354;20.886;2023-07-24T18:58:38;26.00;71.00
18207;DHT22;9229;52.354;20.886;2023-07-24T19:03:43;25.80;72.30
18207;DHT22;9229;52.354;20.886;2023-07-24T19:08:47;25.60;73.00
18207;DHT22;9229;52.354;20.886;2023-07-24T19:13:49;25.50;71.30
18207;DHT22;9229;52.354;20.886;2023-07-24T19:18:50;25.30;68.00
18207;DHT22;9229;52.354;20.886;2023-07-24T19:23:54;25.40;65.70
18207;DHT22;9229;52.354;20.886;2023-07-24T19:28:56;25.50;65.50
18207;DHT22;9229;52.354;20.886;2023-07-24T19:33:58;25.40;65.70
18207;DHT22;9229;52.354;20.886;2023-07-24T19:39:02;25.40;65.90
18207;DHT22;9229;52.354;20.886;2023-07-24T19:44:06;25.30;65.90
18207;DHT22;9229;52.354;20.886;2023-07-24T19:49:08;25.30;66.30
18207;DHT22;9229;52.354;20.886;2023-07-24T19:54:12;25.20;66.50
18207;DHT22;9229;52.354;20.886;2023-07-24T19:59:13;25.20;66.80
18207;DHT22;9229;52.354;20.886;2023-07-24T20:04:16;25.10;67.10
18207;DHT22;9229;52.354;20.886;2023-07-24T20:09:20;25.00;67.40
18207;DHT22;9229;52.354;20.886;2023-07-24T20:14:25;25.00;67.80
18207;DHT22;9229;52.354;20.886;2023-07-24T20:19:27;24.90;68.10
18207;DHT22;9229;52.354;20.886;2023-07-24T20:24:31;24.80;68.70
18207;DHT22;9229;52.354;20.886;2023-07-24T20:29:33;24.70;69.00
18207;DHT22;9229;52.354;20.886;2023-07-24T20:34:36;24.60;69.30
18207;DHT22;9229;52.354;20.886;2023-07-24T20:39:40;24.50;69.60
18207;DHT22;9229;52.354;20.886;2023-07-24T20:44:46;24.50;69.80
18207;DHT22;9229;52.354;20.886;2023-07-24T20:49:48;24.40;70.20
18207;DHT22;9229;52.354;20.886;2023-07-24T20:54:51;24.30;70.70
18207;DHT22;9229;52.354;20.886;2023-07-24T20:59:53;24.30;71.20
18207;DHT22;9229;52.354;20.886;2023-07-24T21:04:55;24.20;71.70
18207;DHT22;9229;52.354;20.886;2023-07-24T21:09:58;24.10;72.10
18207;DHT22;9229;52.354;20.886;2023-07-24T21:15:00;24.10;72.50
18207;DHT22;9229;52.354;20.886;2023-07-24T21:20:02;24.00;72.70
18207;DHT22;9229;52.354;20.886;2023-07-24T21:25:07;24.00;74.00
18207;DHT22;9229;52.354;20.886;2023-07-24T21:30:10;23.90;73.60
18207;DHT22;9229;52.354;20.886;2023-07-24T21:35:12;23.80;74.00
18207;DHT22;9229;52.354;20.886;2023-07-24T21:40:16;23.80;74.30
18207;DHT22;9229;52.354;20.886;2023-07-24T21:45:18;23.70;74.60
18207;DHT22;9229;52.354;20.886;2023-07-24T21:50:20;23.60;75.30
18207;DHT22;9229;52.354;20.886;2023-07-24T21:55:25;23.60;75.70
18207;DHT22;9229;52.354;20.886;2023-07-24T22:00:27;23.50;76.00
18207;DHT22;9229;52.354;20.886;2023-07-24T22:05:29;23.60;76.30
18207;DHT22;9229;52.354;20.886;2023-07-24T22:10:33;23.40;76.70
18207;DHT22;9229;52.354;20.886;2023-07-24T22:15:35;23.30;77.00
18207;DHT22;9229;52.354;20.886;2023-07-24T22:20:37;23.30;77.60
18207;DHT22;9229;52.354;20.886;2023-07-24T22:25:41;23.20;78.00
18207;DHT22;9229;52.354;20.886;2023-07-24T22:30:45;23.20;78.60
18207;DHT22;9229;52.354;20.886;2023-07-24T22:35:47;23.10;79.20
18207;DHT22;9229;52.354;20.886;2023-07-24T22:40:51;23.00;80.40
18207;DHT22;9229;52.354;20.886;2023-07-24T22:45:53;23.00;80.10
18207;DHT22;9229;52.354;20.886;2023-07-24T22:50:55;23.00;80.70
18207;DHT22;9229;52.354;20.886;2023-07-24T22:55:59;22.90;81.20
18207;DHT22;9229;52.354;20.886;2023-07-24T23:01:01;22.80;81.80
18207;DHT22;9229;52.354;20.886;2023-07-24T23:06:03;22.80;82.40
18207;DHT22;9229;52.354;20.886;2023-07-24T23:11:07;22.70;82.70
18207;DHT22;9229;52.354;20.886;2023-07-24T23:16:09;22.60;83.20
18207;DHT22;9229;52.354;20.886;2023-07-24T23:21:11;22.60;83.60
18207;DHT22;9229;52.354;20.886;2023-07-24T23:26:14;22.60;84.20
18207;DHT22;9229;52.354;20.886;2023-07-24T23:31:18;22.60;84.60
18207;DHT22;9229;52.354;20.886;2023-07-24T23:36:22;22.60;85.10
18207;DHT22;9229;52.354;20.886;2023-07-24T23:41:37;22.40;85.40
18207;DHT22;9229;52.354;20.886;2023-07-24T23:46:51;22.40;86.10
18207;DHT22;9229;52.354;20.886;2023-07-24T23:51:55;22.40;86.80
18207;DHT22;9229;52.354;20.886;2023-07-24T23:56:58;22.30;87.30
